sensor_id;sensor_type;location;lat;lon;timestamp;temperature;humidity
15083;DHT22;7640;53.116;6.878;2023-07-31T00:01:07;17.00;99.90
15083;DHT22;7640;53.116;6.878;2023-07-31T00:03:37;17.00;99.90
15083;DHT22;7640;53.116;6.878;2023-07-31T00:06:05;17.00;99.90
15083;DHT22;7640;53.116;6.878;2023-07-31T00:08:34;16.90;99.90
15083;DHT22;7640;53.116;6.878;2023-07-31T00:11:03;16.90;99.90
15083;DHT22;7640;53.116;6.878;2023-07-31T00:13:31;16.80;99.90
15083;DHT22;7640;53.116;6.878;2023-07-31T00:16:02;16.80;99.90
15083;DHT22;7640;53.116;6.878;2023-07-31T00:18:32;16.80;99.90
15083;DHT22;7640;53.116;6.878;2023-07-31T00:21:00;16.70;99.90
15083;DHT22;7640;53.116;6.878;2023-07-31T00:23:29;16.70;99.90
15083;DHT22;7640;53.116;6.878;2023-07-31T00:25:57;16.70;99.90
15083;DHT22;7640;53.116;6.878;2023-07-31T00:28:26;16.70;99.90
15083;DHT22;7640;53.116;6.878;2023-07-31T00:30:55;16.70;99.90
15083;DHT22;7640;53.116;6.878;2023-07-31T00:33:26;16.60;99.90
15083;DHT22;7640;53.116;6.878;2023-07-31T00:35:54;16.60;99.90
15083;DHT22;7640;53.116;6.878;2023-07-31T00:38:23;16.60;99.90
15083;DHT22;7640;53.116;6.878;2023-07-31T00:40:53;16.60;99.90
15083;DHT22;7640;53.116;6.878;2023-07-31T00:43:21;16.60;99.90
15083;DHT22;7640;53.116;6.878;2023-07-31T00:45:50;16.60;99.90
15083;DHT22;7640;53.116;6.878;2023-07-31T00:48:19;16.60;99.90
15083;DHT22;7640;53.116;6.878;2023-07-31T00:50:50;16.60;99.90
15083;DHT22;7640;53.116;6.878;2023-07-31T00:53:19;16.60;99.90
15083;DHT22;7640;53.116;6.878;2023-07-31T00:55:48;16.60;99.90
15083;DHT22;7640;53.116;6.878;2023-07-31T00:58:17;16.50;99.90
15083;DHT22;7640;53.116;6.878;2023-07-31T01:00:46;16.50;99.90
15083;DHT22;7640;53.116;6.878;2023-07-31T01:03:15;16.60;99.90
15083;DHT22;7640;53.116;6.878;2023-07-31T01:05:52;16.60;99.90
15083;DHT22;7640;53.116;6.878;2023-07-31T01:08:29;16.60;99.90
15083;DHT22;7640;53.116;6.878;2023-07-31T01:11:09;16.60;99.90
15083;DHT22;7640;53.116;6.878;2023-07-31T01:13:40;16.60;99.90
15083;DHT22;7640;53.116;6.878;2023-07-31T01:16:09;16.50;99.90
15083;DHT22;7640;53.116;6.878;2023-07-31T01:18:37;16.50;99.90
15083;DHT22;7640;53.116;6.878;2023-07-31T01:21:30;16.50;99.90
15083;DHT22;7640;53.116;6.878;2023-07-31T01:24:20;16.50;99.90
15083;DHT22;7640;53.116;6.878;2023-07-31T01:26:57;16.50;99.90
15083;DHT22;7640;53.116;6.878;2023-07-31T01:29:34;16.50;99.90
15083;DHT22;7640;53.116;6.878;2023-07-31T01:32:06;16.50;99.90
15083;DHT22;7640;53.116;6.878;2023-07-31T01:34:37;16.50;99.90
15083;DHT22;7640;53.116;6.878;2023-07-31T01:37:05;16.50;99.90
15083;DHT22;7640;53.116;6.878;2023-07-31T01:39:35;16.50;99.90
15083;DHT22;7640;53.116;6.878;2023-07-31T01:42:06;16.50;99.90
15083;DHT22;7640;53.116;6.878;2023-07-31T01:44:35;16.50;99.90
15083;DHT22;7640;53.116;6.878;2023-07-31T01:47:05;16.50;99.90
15083;DHT22;7640;53.116;6.878;2023-07-31T01:49:34;16.50;99.90
15083;DHT22;7640;53.116;6.878;2023-07-31T01:52:03;16.50;99.90
15083;DHT22;7640;53.116;6.878;2023-07-31T01:54:38;16.50;99.90
15083;DHT22;7640;53.116;6.878;2023-07-31T01:57:11;16.40;99.90
15083;DHT22;7640;53.116;6.878;2023-07-31T01:59:40;16.40;99.90
15083;DHT22;7640;53.116;6.878;2023-07-31T02:02:09;16.40;99.90
15083;DHT22;7640;53.116;6.878;2023-07-31T02:04:38;16.40;99.90
15083;DHT22;7640;53.116;6.878;2023-07-31T02:07:10;16.40;99.90
15083;DHT22;7640;53.116;6.878;2023-07-31T02:09:44;16.40;99.90
15083;DHT22;7640;53.116;6.878;2023-07-31T02:12:15;16.40;99.90
15083;DHT22;7640;53.116;6.878;2023-07-31T02:14:44;16.40;99.90
15083;DHT22;7640;53.116;6.878;2023-07-31T02:17:13;16.40;99.90
15083;DHT22;7640;53.116;6.878;2023-07-31T02:19:42;16.40;99.90
15083;DHT22;7640;53.116;6.878;2023-07-31T02:22:11;16.40;99.90
15083;DHT22;7640;53.116;6.878;2023-07-31T02:24:40;16.40;99.90
15083;DHT22;7640;53.116;6.878;2023-07-31T02:27:09;16.40;99.90
15083;DHT22;7640;53.116;6.878;2023-07-31T02:29:39;16.40;99.90
15083;DHT22;7640;53.116;6.878;2023-07-31T02:32:07;16.40;99.90
15083;DHT22;7640;53.116;6.878;2023-07-31T02:34:36;16.40;99.90
15083;DHT22;7640;53.116;6.878;2023-07-31T02:37:05;16.40;99.90
15083;DHT22;7640;53.116;6.878;2023-07-31T02:39:34;16.40;99.90
15083;DHT22;7640;53.116;6.878;2023-07-31T02:42:03;16.40;99.90
15083;DHT22;7640;53.116;6.878;2023-07-31T02:44:33;16.40;99.90
15083;DHT22;7640;53.116;6.878;2023-07-31T02:47:05;16.40;99.90
15083;DHT22;7640;53.116;6.878;2023-07-31T02:49:34;16.40;99.90
15083;DHT22;7640;53.116;6.878;2023-07-31T02:52:03;16.40;99.90
15083;DHT22;7640;53.116;6.878;2023-07-31T02:54:33;16.40;99.90
15083;DHT22;7640;53.116;6.878;2023-07-31T02:57:02;16.40;99.90
15083;DHT22;7640;53.116;6.878;2023-07-31T02:59:32;16.40;99.90
15083;DHT22;7640;53.116;6.878;2023-07-31T03:02:00;16.40;99.90
15083;DHT22;7640;53.116;6.878;2023-07-31T03:04:30;16.40;99.90
15083;DHT22;7640;53.116;6.878;2023-07-31T03:06:59;16.40;99.90
15083;DHT22;7640;53.116;6.878;2023-07-31T03:09:28;16.40;99.90
15083;DHT22;7640;53.116;6.878;2023-07-31T03:11:57;16.40;99.90
15083;DHT22;7640;53.116;6.878;2023-07-31T03:14:27;16.40;99.90
15083;DHT22;7640;53.116;6.878;2023-07-31T03:16:57;16.50;99.90
15083;DHT22;7640;53.116;6.878;2023-07-31T03:19:26;16.50;99.90
15083;DHT22;7640;53.116;6.878;2023-07-31T03:21:57;16.50;99.90
15083;DHT22;7640;53.116;6.878;2023-07-31T03:24:26;16.50;99.90
15083;DHT22;7640;53.116;6.878;2023-07-31T03:26:54;16.50;99.90
15083;DHT22;7640;53.116;6.878;2023-07-31T03:29:24;16.50;99.90
15083;DHT22;7640;53.116;6.878;2023-07-31T03:31:53;16.50;99.90
15083;DHT22;7640;53.116;6.878;2023-07-31T03:34:23;16.50;99.90
15083;DHT22;7640;53.116;6.878;2023-07-31T03:36:53;16.50;99.90
15083;DHT22;7640;53.116;6.878;2023-07-31T03:39:23;16.50;99.90
15083;DHT22;7640;53.116;6.878;2023-07-31T03:41:52;16.50;99.90
15083;DHT22;7640;53.116;6.878;2023-07-31T03:44:21;16.50;99.90
15083;DHT22;7640;53.116;6.878;2023-07-31T03:46:51;16.50;99.90
15083;DHT22;7640;53.116;6.878;2023-07-31T03:49:20;16.60;99.90
15083;DHT22;7640;53.116;6.878;2023-07-31T03:51:49;16.50;99.90
15083;DHT22;7640;53.116;6.878;2023-07-31T03:54:18;16.60;99.90
15083;DHT22;7640;53.116;6.878;2023-07-31T03:56:49;16.60;99.90
15083;DHT22;7640;53.116;6.878;2023-07-31T03:59:17;16.60;99.90
15083;DHT22;7640;53.116;6.878;2023-07-31T04:01:46;16.50;99.90
15083;DHT22;7640;53.116;6.878;2023-07-31T04:04:14;16.60;99.90
15083;DHT22;7640;53.116;6.878;2023-07-31T04:06:43;16.60;99.90
15083;DHT22;7640;53.116;6.878;2023-07-31T04:09:11;16.60;99.90
15083;DHT22;7640;53.116;6.878;2023-07-31T04:11:40;16.60;99.90
15083;DHT22;7640;53.116;6.878;2023-07-31T04:14:10;16.60;99.90
15083;DHT22;7640;53.116;6.878;2023-07-31T04:16:39;16.60;99.90
15083;DHT22;7640;53.116;6.878;2023-07-31T04:19:08;16.60;99.90
15083;DHT22;7640;53.116;6.878;2023-07-31T04:21:37;16.70;99.90
15083;DHT22;7640;53.116;6.878;2023-07-31T04:24:05;16.70;99.90
15083;DHT22;7640;53.116;6.878;2023-07-31T04:26:34;16.70;99.90
15083;DHT22;7640;53.116;6.878;2023-07-31T04:29:04;16.70;99.90
15083;DHT22;7640;53.116;6.878;2023-07-31T04:31:35;16.70;99.90
15083;DHT22;7640;53.116;6.878;2023-07-31T04:34:05;16.70;99.90
15083;DHT22;7640;53.116;6.878;2023-07-31T04:36:34;16.80;99.90
15083;DHT22;7640;53.116;6.878;2023-07-31T04:39:04;16.80;99.90
15083;DHT22;7640;53.116;6.878;2023-07-31T04:41:32;16.80;99.90
15083;DHT22;7640;53.116;6.878;2023-07-31T04:44:01;16.80;99.90
15083;DHT22;7640;53.116;6.878;2023-07-31T04:46:30;16.80;99.90
15083;DHT22;7640;53.116;6.878;2023-07-31T04:49:00;16.80;99.90
15083;DHT22;7640;53.116;6.878;2023-07-31T04:51:29;16.80;99.90
15083;DHT22;7640;53.116;6.878;2023-07-31T04:53:57;16.80;99.90
15083;DHT22;7640;53.116;6.878;2023-07-31T04:56:26;16.80;99.90
15083;DHT22;7640;53.116;6.878;2023-07-31T04:58:54;16.80;99.90
15083;DHT22;7640;53.116;6.878;2023-07-31T05:01:41;16.80;99.90
15083;DHT22;7640;53.116;6.878;2023-07-31T05:04:14;16.80;99.90
15083;DHT22;7640;53.116;6.878;2023-07-31T05:06:43;16.80;99.90
15083;DHT22;7640;53.116;6.878;2023-07-31T05:09:12;16.80;99.90
15083;DHT22;7640;53.116;6.878;2023-07-31T05:11:40;16.90;99.90
15083;DHT22;7640;53.116;6.878;2023-07-31T05:14:10;16.90;99.90
15083;DHT22;7640;53.116;6.878;2023-07-31T05:16:38;16.90;99.90
15083;DHT22;7640;53.116;6.878;2023-07-31T05:19:08;16.90;99.90
15083;DHT22;7640;53.116;6.878;2023-07-31T05:21:38;16.90;99.90
15083;DHT22;7640;53.116;6.878;2023-07-31T05:24:06;16.90;99.90
15083;DHT22;7640;53.116;6.878;2023-07-31T05:26:35;16.90;99.90
15083;DHT22;7640;53.116;6.878;2023-07-31T05:29:05;16.90;99.90
15083;DHT22;7640;53.116;6.878;2023-07-31T05:31:34;16.90;99.90
15083;DHT22;7640;53.116;6.878;2023-07-31T05:34:05;16.90;99.90
15083;DHT22;7640;53.116;6.878;2023-07-31T05:36:34;16.90;99.90
15083;DHT22;7640;53.116;6.878;2023-07-31T05:39:05;16.90;99.90
15083;DHT22;7640;53.116;6.878;2023-07-31T05:41:37;16.90;99.90
15083;DHT22;7640;53.116;6.878;2023-07-31T05:44:05;16.90;99.90
15083;DHT22;7640;53.116;6.878;2023-07-31T05:46:34;17.00;99.90
15083;DHT22;7640;53.116;6.878;2023-07-31T05:49:03;17.00;99.90
15083;DHT22;7640;53.116;6.878;2023-07-31T05:51:32;17.00;99.90
15083;DHT22;7640;53.116;6.878;2023-07-31T05:54:01;17.00;99.90
15083;DHT22;7640;53.116;6.878;2023-07-31T05:56:31;17.00;99.90
15083;DHT22;7640;53.116;6.878;2023-07-31T05:59:02;17.00;99.90
15083;DHT22;7640;53.116;6.878;2023-07-31T06:01:32;17.00;99.90
15083;DHT22;7640;53.116;6.878;2023-07-31T06:04:00;17.00;99.90
15083;DHT22;7640;53.116;6.878;2023-07-31T06:06:30;17.00;99.90
15083;DHT22;7640;53.116;6.878;2023-07-31T06:08:59;17.00;99.90
15083;DHT22;7640;53.116;6.878;2023-07-31T06:11:28;17.00;99.90
15083;DHT22;7640;53.116;6.878;2023-07-31T06:13:57;17.00;99.90
15083;DHT22;7640;53.116;6.878;2023-07-31T06:16:26;17.00;99.90
15083;DHT22;7640;53.116;6.878;2023-07-31T06:18:55;17.10;99.90
15083;DHT22;7640;53.116;6.878;2023-07-31T06:21:24;17.00;99.90
15083;DHT22;7640;53.116;6.878;2023-07-31T06:23:52;17.10;99.90
15083;DHT22;7640;53.116;6.878;2023-07-31T06:26:22;17.20;99.90
15083;DHT22;7640;53.116;6.878;2023-07-31T06:28:50;17.20;99.90
15083;DHT22;7640;53.116;6.878;2023-07-31T06:31:20;17.30;99.90
15083;DHT22;7640;53.116;6.878;2023-07-31T06:33:51;17.30;99.90
15083;DHT22;7640;53.116;6.878;2023-07-31T06:36:21;17.40;99.90
15083;DHT22;7640;53.116;6.878;2023-07-31T06:38:49;17.40;99.90
15083;DHT22;7640;53.116;6.878;2023-07-31T06:41:18;17.50;99.90
15083;DHT22;7640;53.116;6.878;2023-07-31T06:43:47;17.50;99.90
15083;DHT22;7640;53.116;6.878;2023-07-31T06:46:15;17.60;99.90
15083;DHT22;7640;53.116;6.878;2023-07-31T06:48:45;17.60;99.90
15083;DHT22;7640;53.116;6.878;2023-07-31T06:51:14;17.70;99.90
15083;DHT22;7640;53.116;6.878;2023-07-31T06:53:42;17.70;99.90
15083;DHT22;7640;53.116;6.878;2023-07-31T06:56:12;17.70;99.90
15083;DHT22;7640;53.116;6.878;2023-07-31T06:58:41;17.70;99.90
15083;DHT22;7640;53.116;6.878;2023-07-31T07:01:09;17.80;99.90
15083;DHT22;7640;53.116;6.878;2023-07-31T07:03:38;17.80;99.90
15083;DHT22;7640;53.116;6.878;2023-07-31T07:06:08;17.90;99.90
15083;DHT22;7640;53.116;6.878;2023-07-31T07:08:36;18.00;99.90
15083;DHT22;7640;53.116;6.878;2023-07-31T07:11:05;18.00;99.90
15083;DHT22;7640;53.116;6.878;2023-07-31T07:13:34;18.00;99.90
15083;DHT22;7640;53.116;6.878;2023-07-31T07:16:05;18.00;99.90
15083;DHT22;7640;53.116;6.878;2023-07-31T07:18:34;18.00;99.90
15083;DHT22;7640;53.116;6.878;2023-07-31T07:21:08;18.00;99.90
15083;DHT22;7640;53.116;6.878;2023-07-31T07:23:41;18.00;99.90
15083;DHT22;7640;53.116;6.878;2023-07-31T07:26:09;18.00;99.90
15083;DHT22;7640;53.116;6.878;2023-07-31T07:28:38;18.00;99.90
15083;DHT22;7640;53.116;6.878;2023-07-31T07:31:06;18.10;99.90
15083;DHT22;7640;53.116;6.878;2023-07-31T07:33:35;18.10;99.90
15083;DHT22;7640;53.116;6.878;2023-07-31T07:36:04;18.10;99.90
15083;DHT22;7640;53.116;6.878;2023-07-31T07:38:38;18.10;99.90
15083;DHT22;7640;53.116;6.878;2023-07-31T07:41:06;18.10;99.90
15083;DHT22;7640;53.116;6.878;2023-07-31T07:43:35;18.10;99.90
15083;DHT22;7640;53.116;6.878;2023-07-31T07:46:03;18.10;99.90
15083;DHT22;7640;53.116;6.878;2023-07-31T07:48:32;18.00;99.90
15083;DHT22;7640;53.116;6.878;2023-07-31T07:51:02;18.10;99.90
15083;DHT22;7640;53.116;6.878;2023-07-31T07:53:30;18.10;99.90
15083;DHT22;7640;53.116;6.878;2023-07-31T07:56:00;18.10;99.90
15083;DHT22;7640;53.116;6.878;2023-07-31T07:58:29;18.00;99.90
15083;DHT22;7640;53.116;6.878;2023-07-31T08:00:57;18.00;99.90
15083;DHT22;7640;53.116;6.878;2023-07-31T08:03:26;18.00;99.90
15083;DHT22;7640;53.116;6.878;2023-07-31T08:05:58;18.00;99.90
15083;DHT22;7640;53.116;6.878;2023-07-31T08:08:27;18.00;99.90
15083;DHT22;7640;53.116;6.878;2023-07-31T08:10:55;18.00;99.90
15083;DHT22;7640;53.116;6.878;2023-07-31T08:13:26;17.90;99.90
15083;DHT22;7640;53.116;6.878;2023-07-31T08:15:54;17.90;99.90
15083;DHT22;7640;53.116;6.878;2023-07-31T08:18:23;17.90;99.90
15083;DHT22;7640;53.116;6.878;2023-07-31T08:20:51;17.90;99.90
15083;DHT22;7640;53.116;6.878;2023-07-31T08:23:24;17.90;99.90
15083;DHT22;7640;53.116;6.878;2023-07-31T08:25:52;17.90;99.90
15083;DHT22;7640;53.116;6.878;2023-07-31T08:28:21;17.90;99.90
15083;DHT22;7640;53.116;6.878;2023-07-31T08:30:51;17.90;99.90
15083;DHT22;7640;53.116;6.878;2023-07-31T08:33:20;17.90;99.90
15083;DHT22;7640;53.116;6.878;2023-07-31T08:35:48;17.90;99.90
15083;DHT22;7640;53.116;6.878;2023-07-31T08:38:17;17.90;99.90
15083;DHT22;7640;53.116;6.878;2023-07-31T08:40:46;17.90;99.90
15083;DHT22;7640;53.116;6.878;2023-07-31T08:43:15;17.90;99.90
15083;DHT22;7640;53.116;6.878;2023-07-31T08:45:44;18.00;99.90
15083;DHT22;7640;53.116;6.878;2023-07-31T08:48:16;18.00;99.90
15083;DHT22;7640;53.116;6.878;2023-07-31T08:50:45;18.10;99.90
15083;DHT22;7640;53.116;6.878;2023-07-31T08:53:14;18.10;99.90
15083;DHT22;7640;53.116;6.878;2023-07-31T08:55:44;18.10;99.90
15083;DHT22;7640;53.116;6.878;2023-07-31T08:58:13;18.20;99.90
15083;DHT22;7640;53.116;6.878;2023-07-31T09:00:43;18.20;99.90
15083;DHT22;7640;53.116;6.878;2023-07-31T09:03:15;18.30;99.90
15083;DHT22;7640;53.116;6.878;2023-07-31T09:05:45;18.40;99.90
15083;DHT22;7640;53.116;6.878;2023-07-31T09:08:18;18.40;99.90
15083;DHT22;7640;53.116;6.878;2023-07-31T09:10:48;18.40;99.90
15083;DHT22;7640;53.116;6.878;2023-07-31T09:13:17;18.30;99.90
15083;DHT22;7640;53.116;6.878;2023-07-31T09:15:46;18.40;99.90
15083;DHT22;7640;53.116;6.878;2023-07-31T09:18:16;18.40;99.90
15083;DHT22;7640;53.116;6.878;2023-07-31T09:21:00;18.40;99.90
15083;DHT22;7640;53.116;6.878;2023-07-31T09:23:40;18.40;99.90
15083;DHT22;7640;53.116;6.878;2023-07-31T09:26:10;18.50;99.90
15083;DHT22;7640;53.116;6.878;2023-07-31T09:28:39;18.50;99.90
15083;DHT22;7640;53.116;6.878;2023-07-31T09:31:08;18.60;99.90
15083;DHT22;7640;53.116;6.878;2023-07-31T09:33:54;18.60;99.90
15083;DHT22;7640;53.116;6.878;2023-07-31T09:36:23;18.70;99.90
15083;DHT22;7640;53.116;6.878;2023-07-31T09:38:52;18.70;99.90
15083;DHT22;7640;53.116;6.878;2023-07-31T09:41:20;18.70;99.90
15083;DHT22;7640;53.116;6.878;2023-07-31T09:43:53;18.70;99.90
15083;DHT22;7640;53.116;6.878;2023-07-31T09:46:22;18.80;99.90
15083;DHT22;7640;53.116;6.878;2023-07-31T09:48:52;18.80;99.90
15083;DHT22;7640;53.116;6.878;2023-07-31T09:51:26;18.80;99.90
15083;DHT22;7640;53.116;6.878;2023-07-31T09:53:55;18.80;99.90
15083;DHT22;7640;53.116;6.878;2023-07-31T09:56:24;19.00;99.90
15083;DHT22;7640;53.116;6.878;2023-07-31T09:58:54;19.10;99.90
15083;DHT22;7640;53.116;6.878;2023-07-31T10:01:24;19.20;99.90
15083;DHT22;7640;53.116;6.878;2023-07-31T10:03:54;19.30;99.90
15083;DHT22;7640;53.116;6.878;2023-07-31T10:06:24;19.50;99.90
15083;DHT22;7640;53.116;6.878;2023-07-31T10:08:54;19.60;99.90
15083;DHT22;7640;53.116;6.878;2023-07-31T10:11:25;19.70;99.90
15083;DHT22;7640;53.116;6.878;2023-07-31T10:13:55;19.80;99.90
15083;DHT22;7640;53.116;6.878;2023-07-31T10:16:24;19.80;99.90
15083;DHT22;7640;53.116;6.878;2023-07-31T10:18:54;19.90;99.90
15083;DHT22;7640;53.116;6.878;2023-07-31T10:21:23;20.00;99.90
15083;DHT22;7640;53.116;6.878;2023-07-31T10:23:54;20.10;99.90
15083;DHT22;7640;53.116;6.878;2023-07-31T10:26:25;20.10;99.90
15083;DHT22;7640;53.116;6.878;2023-07-31T10:28:54;20.20;99.90
15083;DHT22;7640;53.116;6.878;2023-07-31T10:31:23;20.30;99.90
15083;DHT22;7640;53.116;6.878;2023-07-31T10:33:55;20.30;99.90
15083;DHT22;7640;53.116;6.878;2023-07-31T10:36:25;20.20;99.90
15083;DHT22;7640;53.116;6.878;2023-07-31T10:38:55;20.20;99.90
15083;DHT22;7640;53.116;6.878;2023-07-31T10:41:30;20.10;99.90
15083;DHT22;7640;53.116;6.878;2023-07-31T10:43:59;20.10;99.90
15083;DHT22;7640;53.116;6.878;2023-07-31T10:46:28;20.00;99.90
15083;DHT22;7640;53.116;6.878;2023-07-31T10:49:00;20.00;99.90
15083;DHT22;7640;53.116;6.878;2023-07-31T10:51:33;20.10;99.90
15083;DHT22;7640;53.116;6.878;2023-07-31T10:54:12;20.20;99.90
15083;DHT22;7640;53.116;6.878;2023-07-31T10:56:44;20.30;99.90
15083;DHT22;7640;53.116;6.878;2023-07-31T10:59:13;20.30;99.90
15083;DHT22;7640;53.116;6.878;2023-07-31T11:01:50;20.40;99.90
15083;DHT22;7640;53.116;6.878;2023-07-31T11:04:24;20.40;99.90
15083;DHT22;7640;53.116;6.878;2023-07-31T11:06:57;20.40;99.90
15083;DHT22;7640;53.116;6.878;2023-07-31T11:09:29;20.40;99.90
15083;DHT22;7640;53.116;6.878;2023-07-31T11:11:59;20.40;99.90
15083;DHT22;7640;53.116;6.878;2023-07-31T11:14:28;20.40;99.90
15083;DHT22;7640;53.116;6.878;2023-07-31T11:16:57;20.40;99.90
15083;DHT22;7640;53.116;6.878;2023-07-31T11:19:27;20.30;99.90
15083;DHT22;7640;53.116;6.878;2023-07-31T11:21:56;20.20;99.90
15083;DHT22;7640;53.116;6.878;2023-07-31T11:24:25;20.10;99.90
15083;DHT22;7640;53.116;6.878;2023-07-31T11:26:55;20.10;99.90
15083;DHT22;7640;53.116;6.878;2023-07-31T11:29:27;20.00;99.90
15083;DHT22;7640;53.116;6.878;2023-07-31T11:31:56;19.90;99.90
15083;DHT22;7640;53.116;6.878;2023-07-31T11:34:26;19.90;99.90
15083;DHT22;7640;53.116;6.878;2023-07-31T11:36:55;19.90;99.90
15083;DHT22;7640;53.116;6.878;2023-07-31T11:39:24;19.80;99.90
15083;DHT22;7640;53.116;6.878;2023-07-31T11:41:58;19.80;99.90
15083;DHT22;7640;53.116;6.878;2023-07-31T11:44:37;19.80;99.90
15083;DHT22;7640;53.116;6.878;2023-07-31T11:47:06;19.70;99.90
15083;DHT22;7640;53.116;6.878;2023-07-31T11:49:39;19.60;99.90
15083;DHT22;7640;53.116;6.878;2023-07-31T11:52:08;19.40;99.90
15083;DHT22;7640;53.116;6.878;2023-07-31T11:54:37;19.30;99.90
15083;DHT22;7640;53.116;6.878;2023-07-31T11:57:09;19.20;99.90
15083;DHT22;7640;53.116;6.878;2023-07-31T11:59:39;19.20;99.90
15083;DHT22;7640;53.116;6.878;2023-07-31T12:02:08;19.30;99.90
15083;DHT22;7640;53.116;6.878;2023-07-31T12:04:39;19.40;99.90
15083;DHT22;7640;53.116;6.878;2023-07-31T12:07:07;19.50;99.90
15083;DHT22;7640;53.116;6.878;2023-07-31T12:09:36;19.50;99.90
15083;DHT22;7640;53.116;6.878;2023-07-31T12:12:08;19.60;99.90
15083;DHT22;7640;53.116;6.878;2023-07-31T12:14:41;19.70;99.90
15083;DHT22;7640;53.116;6.878;2023-07-31T12:17:11;20.00;99.90
15083;DHT22;7640;53.116;6.878;2023-07-31T12:19:41;20.20;99.90
15083;DHT22;7640;53.116;6.878;2023-07-31T12:22:13;20.40;99.90
15083;DHT22;7640;53.116;6.878;2023-07-31T12:24:54;20.60;99.90
15083;DHT22;7640;53.116;6.878;2023-07-31T12:27:23;20.60;99.90
15083;DHT22;7640;53.116;6.878;2023-07-31T12:29:53;20.60;99.90
15083;DHT22;7640;53.116;6.878;2023-07-31T12:32:22;20.60;99.90
15083;DHT22;7640;53.116;6.878;2023-07-31T12:34:53;20.70;99.90
15083;DHT22;7640;53.116;6.878;2023-07-31T12:37:22;20.90;99.90
15083;DHT22;7640;53.116;6.878;2023-07-31T12:39:51;20.90;99.90
15083;DHT22;7640;53.116;6.878;2023-07-31T12:42:19;20.90;99.90
15083;DHT22;7640;53.116;6.878;2023-07-31T12:44:48;20.90;99.90
15083;DHT22;7640;53.116;6.878;2023-07-31T12:47:16;20.80;99.90
15083;DHT22;7640;53.116;6.878;2023-07-31T12:49:45;20.70;99.90
15083;DHT22;7640;53.116;6.878;2023-07-31T12:52:15;20.60;99.90
15083;DHT22;7640;53.116;6.878;2023-07-31T12:54:44;20.50;99.90
15083;DHT22;7640;53.116;6.878;2023-07-31T12:57:13;20.40;99.90
15083;DHT22;7640;53.116;6.878;2023-07-31T12:59:41;20.10;99.90
15083;DHT22;7640;53.116;6.878;2023-07-31T13:02:10;19.90;99.90
15083;DHT22;7640;53.116;6.878;2023-07-31T13:04:39;19.80;99.90
15083;DHT22;7640;53.116;6.878;2023-07-31T13:07:07;19.70;99.90
15083;DHT22;7640;53.116;6.878;2023-07-31T13:09:37;19.60;99.90
15083;DHT22;7640;53.116;6.878;2023-07-31T13:12:06;19.60;99.90
15083;DHT22;7640;53.116;6.878;2023-07-31T13:14:35;19.60;99.90
15083;DHT22;7640;53.116;6.878;2023-07-31T13:17:05;19.50;99.90
15083;DHT22;7640;53.116;6.878;2023-07-31T13:19:33;19.50;99.90
15083;DHT22;7640;53.116;6.878;2023-07-31T13:22:03;19.50;99.90
15083;DHT22;7640;53.116;6.878;2023-07-31T13:24:37;19.50;99.90
15083;DHT22;7640;53.116;6.878;2023-07-31T13:27:06;19.60;99.90
15083;DHT22;7640;53.116;6.878;2023-07-31T13:29:34;19.60;99.90
15083;DHT22;7640;53.116;6.878;2023-07-31T13:32:04;19.60;99.90
15083;DHT22;7640;53.116;6.878;2023-07-31T13:34:34;19.70;99.90
15083;DHT22;7640;53.116;6.878;2023-07-31T13:37:03;19.80;99.90
15083;DHT22;7640;53.116;6.878;2023-07-31T13:39:33;19.90;99.90
15083;DHT22;7640;53.116;6.878;2023-07-31T13:42:04;19.90;99.90
15083;DHT22;7640;53.116;6.878;2023-07-31T13:44:33;19.90;99.90
15083;DHT22;7640;53.116;6.878;2023-07-31T13:47:02;19.90;99.90
15083;DHT22;7640;53.116;6.878;2023-07-31T13:49:31;20.00;99.90
15083;DHT22;7640;53.116;6.878;2023-07-31T13:52:01;20.00;99.90
15083;DHT22;7640;53.116;6.878;2023-07-31T13:54:30;20.10;99.90
15083;DHT22;7640;53.116;6.878;2023-07-31T13:56:59;20.10;99.90
15083;DHT22;7640;53.116;6.878;2023-07-31T13:59:29;20.20;99.90
15083;DHT22;7640;53.116;6.878;2023-07-31T14:01:58;20.20;99.90
15083;DHT22;7640;53.116;6.878;2023-07-31T14:04:27;20.20;99.90
15083;DHT22;7640;53.116;6.878;2023-07-31T14:06:56;20.30;99.90
15083;DHT22;7640;53.116;6.878;2023-07-31T14:09:26;20.30;99.90
15083;DHT22;7640;53.116;6.878;2023-07-31T14:11:55;20.40;99.90
15083;DHT22;7640;53.116;6.878;2023-07-31T14:14:23;20.40;99.90
15083;DHT22;7640;53.116;6.878;2023-07-31T14:16:53;20.50;99.90
15083;DHT22;7640;53.116;6.878;2023-07-31T14:19:23;20.50;99.90
15083;DHT22;7640;53.116;6.878;2023-07-31T14:21:52;20.60;99.90
15083;DHT22;7640;53.116;6.878;2023-07-31T14:24:37;20.60;99.90
15083;DHT22;7640;53.116;6.878;2023-07-31T14:27:06;20.60;99.90
15083;DHT22;7640;53.116;6.878;2023-07-31T14:29:35;20.70;99.90
15083;DHT22;7640;53.116;6.878;2023-07-31T14:32:06;20.70;99.90
15083;DHT22;7640;53.116;6.878;2023-07-31T14:34:35;20.70;99.90
15083;DHT22;7640;53.116;6.878;2023-07-31T14:37:05;20.70;99.90
15083;DHT22;7640;53.116;6.878;2023-07-31T14:39:34;20.70;99.90
15083;DHT22;7640;53.116;6.878;2023-07-31T14:42:07;20.80;99.90
15083;DHT22;7640;53.116;6.878;2023-07-31T14:44:35;20.80;99.90
15083;DHT22;7640;53.116;6.878;2023-07-31T14:47:05;20.90;99.90
15083;DHT22;7640;53.116;6.878;2023-07-31T14:49:34;20.90;99.90
15083;DHT22;7640;53.116;6.878;2023-07-31T14:52:03;20.90;99.90
15083;DHT22;7640;53.116;6.878;2023-07-31T14:54:32;20.90;99.90
15083;DHT22;7640;53.116;6.878;2023-07-31T14:57:02;20.80;99.90
15083;DHT22;7640;53.116;6.878;2023-07-31T14:59:32;20.90;99.90
15083;DHT22;7640;53.116;6.878;2023-07-31T15:02:01;20.90;99.90
15083;DHT22;7640;53.116;6.878;2023-07-31T15:04:32;20.90;99.90
15083;DHT22;7640;53.116;6.878;2023-07-31T15:07:02;20.90;99.90
15083;DHT22;7640;53.116;6.878;2023-07-31T15:09:32;20.90;99.90
15083;DHT22;7640;53.116;6.878;2023-07-31T15:12:01;20.90;99.90
15083;DHT22;7640;53.116;6.878;2023-07-31T15:14:29;20.90;99.90
15083;DHT22;7640;53.116;6.878;2023-07-31T15:16:59;20.90;99.90
15083;DHT22;7640;53.116;6.878;2023-07-31T15:19:28;20.80;99.90
15083;DHT22;7640;53.116;6.878;2023-07-31T15:21:58;20.80;99.90
15083;DHT22;7640;53.116;6.878;2023-07-31T15:24:27;20.80;99.90
15083;DHT22;7640;53.116;6.878;2023-07-31T15:26:55;20.70;99.90
15083;DHT22;7640;53.116;6.878;2023-07-31T15:29:24;20.70;99.90
15083;DHT22;7640;53.116;6.878;2023-07-31T15:31:52;20.70;99.90
15083;DHT22;7640;53.116;6.878;2023-07-31T15:34:21;20.60;99.90
15083;DHT22;7640;53.116;6.878;2023-07-31T15:36:49;20.60;99.90
15083;DHT22;7640;53.116;6.878;2023-07-31T15:39:19;20.60;99.90
15083;DHT22;7640;53.116;6.878;2023-07-31T15:41:48;20.60;99.90
15083;DHT22;7640;53.116;6.878;2023-07-31T15:44:17;20.60;99.90
15083;DHT22;7640;53.116;6.878;2023-07-31T15:46:48;20.70;99.90
15083;DHT22;7640;53.116;6.878;2023-07-31T15:49:16;20.60;99.90
15083;DHT22;7640;53.116;6.878;2023-07-31T15:51:46;20.70;99.90
15083;DHT22;7640;53.116;6.878;2023-07-31T15:54:16;20.70;99.90
15083;DHT22;7640;53.116;6.878;2023-07-31T15:56:47;20.70;99.90
15083;DHT22;7640;53.116;6.878;2023-07-31T15:59:15;20.70;99.90
15083;DHT22;7640;53.116;6.878;2023-07-31T16:01:44;20.70;99.90